Weston, Ohio
Current Conditions -  °F | °C
As of 5:52 AM on Sunday 23 Nov 2014 (Local Time) from KTOL Reporting Station
Light Rain Light Rain  
Wind Chill: 41°   Ceiling: 3300
Heat Index: 45°   Visibility: 7mi
Dew Point: 43°   Wind: 8mph
Humidity: 93%   Direction: 170°S
Pressure: 29.95"   Gusts: NA
Location:  41.34°N, 83.8°W
Report Text: KTOL 231052Z 17007KT 7SM -RA BKN033 OVC043 07/06 A2995 RMK AO2 SLP146 P0002 T00720061
Loading
Personal Weather Stations






























Interactive Weather Map New forecast layout! Learn more

10-Day Weather Forecast

Advertisements
Track Severe Weather on mobile